Aquone, North Carolina
Current Conditions -  °F | °C
As of 6:55 AM on Sunday 23 Nov 2014 (Local Time) from KRHP Reporting Station
Drizzle Drizzle  
Wind Chill:   Ceiling: 2600
Heat Index:   Visibility: 10mi
Dew Point:   Wind: 3mph
Humidity: 97%   Direction: 150°SSE
Pressure: 30.08"   Gusts: NA
Location:  35.2235°N, 83.6438°W
Report Text: KRHP 231155Z AUTO 15003KT 10SM -DZ OVC026 09/08 A3008 RMK AO2 P0001 60010 70010 T00880084 10119 20068
Loading
Personal Weather Stations






























Interactive Weather Map New forecast layout! Learn more

10-Day Weather Forecast

Advertisements
Track Severe Weather on mobile